createdAt,value
2018-03-16T00:00:01.522Z,3.32
2018-03-16T00:02:36.033Z,3.25
2018-03-16T00:05:10.393Z,3.21
2018-03-16T00:07:44.751Z,3.36
2018-03-16T00:10:19.766Z,3.38
2018-03-16T00:12:53.595Z,3.33
2018-03-16T00:15:27.176Z,3.40
2018-03-16T00:18:01.651Z,3.37
2018-03-16T00:20:35.831Z,3.34
2018-03-16T00:23:10.028Z,3.29
2018-03-16T00:25:44.623Z,3.22
2018-03-16T00:28:18.385Z,3.24
2018-03-16T00:30:51.771Z,3.21
2018-03-16T00:33:26.544Z,3.21
2018-03-16T00:36:00.460Z,3.21
2018-03-16T00:38:34.926Z,3.19
2018-03-16T00:41:08.702Z,3.23
2018-03-16T00:43:42.633Z,3.25
2018-03-16T00:46:16.435Z,3.25
2018-03-16T00:48:50.259Z,3.17
2018-03-16T00:51:24.090Z,3.19
2018-03-16T00:53:57.557Z,3.09
2018-03-16T00:56:31.477Z,2.96
2018-03-16T00:59:05.249Z,3.04
2018-03-16T01:01:38.686Z,2.92
2018-03-16T01:04:12.809Z,3.03
2018-03-16T01:06:46.533Z,2.93
2018-03-16T01:09:20.764Z,2.89
2018-03-16T01:11:55.411Z,2.82
2018-03-16T01:14:29.249Z,2.81
2018-03-16T01:17:03.129Z,2.80
2018-03-16T01:19:36.880Z,2.84
2018-03-16T01:22:12.278Z,2.85
2018-03-16T01:24:45.652Z,2.80
2018-03-16T01:27:20.798Z,2.89
2018-03-16T01:29:55.767Z,2.92
2018-03-16T01:32:29.552Z,2.92
2018-03-16T01:35:03.210Z,3.00
2018-03-16T01:37:36.547Z,3.16
2018-03-16T01:40:10.673Z,3.34
2018-03-16T01:42:45.614Z,3.50
2018-03-16T01:45:18.922Z,3.61
2018-03-16T01:47:53.133Z,3.60
2018-03-16T01:50:27.775Z,3.61
2018-03-16T01:53:09.888Z,3.68
2018-03-16T01:55:43.353Z,3.66
2018-03-16T01:58:17.103Z,3.72
2018-03-16T02:00:50.605Z,3.67
2018-03-16T02:03:24.440Z,3.74
2018-03-16T02:05:58.872Z,3.77
2018-03-16T02:08:32.323Z,3.71
2018-03-16T02:11:05.936Z,3.71
2018-03-16T02:13:39.747Z,3.72
2018-03-16T02:16:13.219Z,3.70
2018-03-16T02:18:46.528Z,3.77
2018-03-16T02:21:22.204Z,3.77
2018-03-16T02:23:55.945Z,3.77
2018-03-16T02:26:30.530Z,3.72
2018-03-16T02:29:05.228Z,3.74
2018-03-16T02:31:38.863Z,3.74
2018-03-16T02:34:12.307Z,3.78
2018-03-16T02:36:45.704Z,3.77
2018-03-16T02:39:19.290Z,3.77
2018-03-16T02:41:52.882Z,3.82
2018-03-16T02:44:27.686Z,3.80
2018-03-16T02:47:01.449Z,3.78
2018-03-16T02:49:35.183Z,3.85
2018-03-16T02:52:08.878Z,3.86
2018-03-16T02:54:43.179Z,3.87
2018-03-16T02:57:18.933Z,3.89
2018-03-16T02:59:54.151Z,3.95
2018-03-16T03:02:27.409Z,3.93
2018-03-16T03:05:01.320Z,3.90
2018-03-16T03:07:35.136Z,3.90
2018-03-16T03:10:08.471Z,3.93
2018-03-16T03:12:42.271Z,3.90
2018-03-16T03:15:15.955Z,3.93
2018-03-16T03:17:49.816Z,3.96
2018-03-16T03:20:23.751Z,3.98
2018-03-16T03:22:57.713Z,3.95
2018-03-16T03:25:31.461Z,4.03
2018-03-16T03:28:05.163Z,3.99
2018-03-16T03:30:38.609Z,3.98
2018-03-16T03:33:12.490Z,3.97
2018-03-16T03:35:46.049Z,3.96
2018-03-16T03:38:21.128Z,3.98
2018-03-16T03:40:56.175Z,4.07
2018-03-16T03:43:29.810Z,3.96
2018-03-16T03:46:03.206Z,3.97
2018-03-16T03:48:37.486Z,4.01
2018-03-16T03:51:10.844Z,4.04
2018-03-16T03:53:45.614Z,4.00
2018-03-16T03:56:19.434Z,3.94
2018-03-16T03:58:52.773Z,3.89
2018-03-16T04:01:26.441Z,3.90
2018-03-16T04:04:00.410Z,3.92
2018-03-16T04:06:35.369Z,3.89
2018-03-16T04:09:09.100Z,3.90
2018-03-16T04:11:43.727Z,3.90
2018-03-16T04:14:18.566Z,3.92
2018-03-16T04:16:52.298Z,3.98
2018-03-16T04:19:26.312Z,3.99
2018-03-16T04:21:59.623Z,4.02
2018-03-16T04:24:33.698Z,4.01
2018-03-16T04:27:08.061Z,4.02
2018-03-16T04:29:41.668Z,4.03
2018-03-16T04:32:15.437Z,3.91
2018-03-16T04:34:49.684Z,3.90
2018-03-16T04:37:23.042Z,3.88
2018-03-16T04:39:56.818Z,3.92
2018-03-16T04:42:30.661Z,3.97
2018-03-16T04:45:05.191Z,3.84
2018-03-16T04:47:38.676Z,3.94
2018-03-16T04:50:12.301Z,4.02
2018-03-16T04:52:47.739Z,4.08
2018-03-16T04:55:22.001Z,4.09
2018-03-16T04:57:55.754Z,4.11
2018-03-16T05:00:29.738Z,4.03
2018-03-16T05:03:03.034Z,3.98
2018-03-16T05:05:36.846Z,3.98
2018-03-16T05:08:10.490Z,4.01
2018-03-16T05:10:43.785Z,3.98
2018-03-16T05:13:17.648Z,3.88
2018-03-16T05:15:51.299Z,3.91
2018-03-16T05:18:25.678Z,3.83
2018-03-16T05:20:59.670Z,3.91
2018-03-16T05:23:33.379Z,3.91
2018-03-16T05:26:06.758Z,3.91
2018-03-16T05:28:40.655Z,3.95
2018-03-16T05:31:14.594Z,3.98
2018-03-16T05:33:48.197Z,4.05
2018-03-16T05:36:24.200Z,4.15
2018-03-16T05:38:58.110Z,4.20
2018-03-16T05:41:31.580Z,4.28
2018-03-16T05:44:05.487Z,4.19
2018-03-16T05:46:40.336Z,4.34
2018-03-16T05:49:17.421Z,4.41
2018-03-16T05:51:50.869Z,4.32
2018-03-16T05:54:24.444Z,4.36
2018-03-16T05:56:59.497Z,4.43
2018-03-16T05:59:39.652Z,4.31
2018-03-16T06:02:13.190Z,4.14
2018-03-16T06:04:47.037Z,4.12
2018-03-16T06:07:20.560Z,4.12
2018-03-16T06:09:54.184Z,4.09
2018-03-16T06:12:29.712Z,4.08
2018-03-16T06:15:06.442Z,3.88
2018-03-16T06:17:39.946Z,4.24
2018-03-16T06:20:14.047Z,4.38
2018-03-16T06:22:47.644Z,4.42
2018-03-16T06:25:23.625Z,4.51
2018-03-16T06:27:58.906Z,4.29
2018-03-16T06:30:32.614Z,4.39
2018-03-16T06:33:06.388Z,4.25
2018-03-16T06:35:40.220Z,4.25
2018-03-16T06:38:14.720Z,4.17
2018-03-16T06:40:52.542Z,4.17
2018-03-16T06:43:26.137Z,4.26
2018-03-16T06:46:00.157Z,4.21
2018-03-16T06:48:36.108Z,4.06
2018-03-16T06:51:09.828Z,4.30
2018-03-16T06:53:45.181Z,4.17
2018-03-16T06:56:28.532Z,4.23
2018-03-16T06:59:05.817Z,4.42
2018-03-16T07:01:41.197Z,4.50
2018-03-16T07:04:17.608Z,4.54
2018-03-16T07:06:52.788Z,4.27
2018-03-16T07:12:10.975Z,4.28
2018-03-16T07:14:45.609Z,4.36
2018-03-16T07:17:22.933Z,4.27
2018-03-16T07:19:57.991Z,4.41
2018-03-16T07:22:33.460Z,4.40
2018-03-16T07:25:08.173Z,4.38
2018-03-16T07:27:43.920Z,4.39
2018-03-16T07:30:18.057Z,4.41
2018-03-16T07:32:51.814Z,4.47
2018-03-16T07:35:28.033Z,4.42
2018-03-16T07:38:02.059Z,4.58
2018-03-16T07:40:36.003Z,4.62
2018-03-16T07:43:10.134Z,4.64
2018-03-16T07:45:48.404Z,4.73
2018-03-16T07:48:25.793Z,4.81
2018-03-16T07:51:01.403Z,4.75
2018-03-16T07:53:35.466Z,4.65
2018-03-16T07:56:09.860Z,4.63
2018-03-16T07:58:43.744Z,4.71
2018-03-16T08:01:17.433Z,4.74
2018-03-16T08:03:51.417Z,4.63
2018-03-16T08:06:25.085Z,4.62
2018-03-16T08:08:59.283Z,4.59
2018-03-16T08:11:38.549Z,4.78
2018-03-16T08:14:12.566Z,4.95
2018-03-16T08:16:50.713Z,4.90
2018-03-16T08:19:32.015Z,4.88
2018-03-16T08:22:12.430Z,4.97
2018-03-16T08:24:48.224Z,4.98
2018-03-16T08:27:32.429Z,4.95
2018-03-16T08:30:13.840Z,5.05
2018-03-16T08:33:09.928Z,4.96
2018-03-16T08:35:43.887Z,5.03
2018-03-16T08:38:20.421Z,5.02
2018-03-16T08:40:57.979Z,5.10
2018-03-16T08:43:32.406Z,5.11
2018-03-16T08:46:07.485Z,5.33
2018-03-16T08:48:49.266Z,5.53
2018-03-16T08:51:30.283Z,5.34
2018-03-16T08:54:11.579Z,5.46
2018-03-16T08:56:52.789Z,5.34
2018-03-16T08:59:28.225Z,5.37
2018-03-16T09:02:03.525Z,5.10
2018-03-16T09:04:44.698Z,5.28
2018-03-16T09:07:24.267Z,5.68
2018-03-16T09:09:57.983Z,5.50
2018-03-16T09:12:34.741Z,5.48
2018-03-16T09:15:14.968Z,5.32
2018-03-16T09:17:48.980Z,5.44
2018-03-16T09:20:22.308Z,5.41
2018-03-16T09:22:56.118Z,5.40
2018-03-16T09:25:30.197Z,5.63
2018-03-16T09:28:03.984Z,5.63
2018-03-16T09:33:54.300Z,5.32
2018-03-16T09:36:34.769Z,5.35
2018-03-16T09:39:15.281Z,5.25
2018-03-16T09:41:49.233Z,5.31
2018-03-16T09:44:23.031Z,5.30
2018-03-16T09:46:56.913Z,5.17
2018-03-16T09:49:31.091Z,5.28
2018-03-16T09:52:05.705Z,5.29
2018-03-16T09:54:47.919Z,5.40
2018-03-16T09:57:44.614Z,5.16
2018-03-16T10:00:26.245Z,5.07
2018-03-16T10:02:59.505Z,5.06
2018-03-16T10:05:42.999Z,4.83
2018-03-16T10:08:19.544Z,4.76
2018-03-16T10:10:56.091Z,4.78
2018-03-16T10:13:29.590Z,4.65
2018-03-16T10:16:03.708Z,4.63
2018-03-16T10:18:44.283Z,4.72
2018-03-16T10:21:19.355Z,4.80
2018-03-16T10:23:54.133Z,4.76
2018-03-16T10:29:28.490Z,4.76
2018-03-16T10:32:02.335Z,4.83
2018-03-16T10:34:38.580Z,4.61
2018-03-16T10:37:23.508Z,4.63
2018-03-16T10:40:00.547Z,4.55
2018-03-16T10:42:40.180Z,4.62
2018-03-16T10:45:29.374Z,4.75
2018-03-16T10:48:07.538Z,4.64
2018-03-16T10:50:49.764Z,4.86
2018-03-16T10:53:23.497Z,4.71
2018-03-16T10:56:15.517Z,4.80
2018-03-16T11:06:09.740Z,4.71
2018-03-16T11:08:46.342Z,4.63
2018-03-16T11:11:20.706Z,4.34
2018-03-16T11:13:55.186Z,4.61
2018-03-16T11:16:35.045Z,4.46
2018-03-16T11:19:15.421Z,4.53
2018-03-16T11:22:10.697Z,4.67
2018-03-16T11:28:35.678Z,4.74
2018-03-16T11:40:51.740Z,4.41
2018-03-16T11:43:28.999Z,4.11
2018-03-16T11:55:35.904Z,4.31
2018-03-16T11:58:10.214Z,4.07
2018-03-16T12:03:53.467Z,4.04
2018-03-16T12:06:30.136Z,3.98
2018-03-16T12:09:04.773Z,4.03
2018-03-16T12:11:39.439Z,3.93
2018-03-16T12:14:13.404Z,3.75
2018-03-16T12:16:55.966Z,3.63
2018-03-16T12:19:31.764Z,3.82
2018-03-16T12:22:10.962Z,3.76
2018-03-16T12:24:44.545Z,3.80
2018-03-16T12:27:18.603Z,3.80
2018-03-16T12:29:52.609Z,3.64
2018-03-16T12:32:27.047Z,3.60
2018-03-16T12:35:24.281Z,3.25
2018-03-16T12:42:22.554Z,3.11
2018-03-16T12:45:03.566Z,3.17
2018-03-16T12:47:39.191Z,2.97
2018-03-16T12:51:06.640Z,3.37
2018-03-16T12:57:39.109Z,2.74
2018-03-16T13:00:14.379Z,2.87
2018-03-16T13:02:57.903Z,3.05
2018-03-16T13:05:37.375Z,3.01
2018-03-16T13:08:19.895Z,2.90
2018-03-16T13:10:57.352Z,2.75
2018-03-16T13:13:30.818Z,2.84
2018-03-16T13:16:20.563Z,2.88
2018-03-16T13:18:56.376Z,3.09
2018-03-16T13:21:30.441Z,2.84
2018-03-16T13:26:42.112Z,2.70
2018-03-16T13:29:16.940Z,2.57
2018-03-16T13:31:52.306Z,2.62
2018-03-16T13:34:29.455Z,2.59
2018-03-16T13:37:09.464Z,2.65
2018-03-16T13:39:53.244Z,2.75
2018-03-16T13:42:31.842Z,2.73
2018-03-16T13:49:24.251Z,2.53
2018-03-16T13:51:58.414Z,2.37
2018-03-16T14:11:19.834Z,1.96
2018-03-16T14:13:56.169Z,1.97
2018-03-16T14:16:30.974Z,1.91
2018-03-16T14:19:14.547Z,1.75
2018-03-16T14:21:48.263Z,1.42
2018-03-16T14:24:27.243Z,1.50
2018-03-16T14:27:13.857Z,1.31
2018-03-16T14:29:52.179Z,1.26
2018-03-16T14:32:26.754Z,1.39
2018-03-16T14:35:03.787Z,1.37
2018-03-16T14:37:39.874Z,11.80
2018-03-16T14:41:18.278Z,18.83
2018-03-16T14:43:52.179Z,6.53
2018-03-16T14:46:29.520Z,3.12
2018-03-16T14:49:03.021Z,2.57
2018-03-16T14:51:40.423Z,2.29
2018-03-16T14:54:15.384Z,2.11
2018-03-16T14:59:57.230Z,2.11
2018-03-16T15:02:31.203Z,1.90
2018-03-16T15:05:15.717Z,1.77
2018-03-16T15:07:55.077Z,1.98
2018-03-16T15:13:37.768Z,1.71
2018-03-16T15:16:14.708Z,1.54
2018-03-16T15:19:44.816Z,1.61
2018-03-16T15:22:18.566Z,1.63
2018-03-16T15:24:54.046Z,1.52
2018-03-16T15:27:30.596Z,1.34
2018-03-16T15:30:16.695Z,1.20
2018-03-16T15:32:52.609Z,1.23
2018-03-16T15:35:45.649Z,1.23
2018-03-16T15:38:20.180Z,1.36
2018-03-16T15:41:45.036Z,1.50
2018-03-16T15:45:00.933Z,1.59
2018-03-16T15:47:52.630Z,1.42
2018-03-16T15:53:16.612Z,1.37
2018-03-16T15:55:52.601Z,1.37
2018-03-16T15:58:34.324Z,1.45
2018-03-16T16:01:10.128Z,1.46
2018-03-16T16:03:44.113Z,1.44
2018-03-16T16:06:18.153Z,1.25
2018-03-16T16:08:59.907Z,1.23
2018-03-16T16:11:50.057Z,0.98
2018-03-16T16:14:28.652Z,1.07
2018-03-16T16:17:03.104Z,1.17
2018-03-16T16:19:50.195Z,1.01
2018-03-16T16:22:25.512Z,0.87
2018-03-16T16:25:00.884Z,0.82
2018-03-16T16:27:36.393Z,0.92
2018-03-16T16:30:31.964Z,0.75
2018-03-16T16:33:05.975Z,0.90
2018-03-16T16:38:39.297Z,0.83
2018-03-16T16:41:18.879Z,0.81
2018-03-16T16:44:02.305Z,0.88
2018-03-16T16:46:38.860Z,0.87
2018-03-16T16:49:19.830Z,0.76
2018-03-16T16:51:56.037Z,0.49
2018-03-16T16:57:57.572Z,0.63
2018-03-16T17:00:32.377Z,0.72
2018-03-16T17:03:07.581Z,0.70
2018-03-16T17:05:44.615Z,0.71
2018-03-16T17:08:20.011Z,0.64
2018-03-16T17:10:53.770Z,0.53
2018-03-16T17:13:40.959Z,0.47
2018-03-16T17:16:15.527Z,0.51
2018-03-16T17:18:56.740Z,0.61
2018-03-16T17:21:30.745Z,0.61
2018-03-16T17:24:07.635Z,0.53
2018-03-16T17:26:41.664Z,0.54
2018-03-16T17:29:21.185Z,0.48
2018-03-16T17:32:00.447Z,0.42
2018-03-16T17:34:38.596Z,0.40
2018-03-16T17:37:17.936Z,0.33
2018-03-16T17:39:51.833Z,0.39
2018-03-16T17:42:29.179Z,0.31
2018-03-16T17:45:03.929Z,0.34
2018-03-16T17:47:42.411Z,0.45
2018-03-16T17:50:18.561Z,0.56
2018-03-16T17:52:56.356Z,0.40
2018-03-16T17:56:02.626Z,0.24
2018-03-16T18:02:03.624Z,0.09
2018-03-16T18:04:38.948Z,0.13
2018-03-16T18:07:20.573Z,0.16
2018-03-16T18:09:55.402Z,0.10
2018-03-16T18:12:51.912Z,0.13
2018-03-16T18:15:43.424Z,0.18
2018-03-16T18:18:17.790Z,0.06
2018-03-16T18:21:00.455Z,0.03
2018-03-16T18:23:34.471Z,-0.04
2018-03-16T18:26:09.190Z,0.06
2018-03-16T18:28:44.875Z,-0.03
2018-03-16T18:31:18.400Z,0.00
2018-03-16T18:33:52.542Z,0.00
2018-03-16T18:36:42.833Z,0.14
2018-03-16T18:39:28.539Z,-0.02
2018-03-16T18:42:05.064Z,-0.06
2018-03-16T18:44:41.892Z,-0.18
2018-03-16T18:47:18.266Z,0.00
2018-03-16T18:49:56.576Z,0.14
2018-03-16T18:52:36.143Z,0.14
2018-03-16T18:55:30.956Z,0.12
2018-03-16T18:58:20.049Z,-0.03
2018-03-16T19:00:59.599Z,0.04
2018-03-16T19:03:34.324Z,0.03
2018-03-16T19:09:04.316Z,-0.09
2018-03-16T19:11:40.859Z,-0.10
2018-03-16T19:14:15.459Z,-0.14
2018-03-16T19:16:51.467Z,-0.11
2018-03-16T19:19:31.472Z,-0.06
2018-03-16T19:22:05.646Z,-0.14
2018-03-16T19:24:39.973Z,-0.15
2018-03-16T19:27:20.353Z,-0.19
2018-03-16T19:29:55.951Z,-0.24
2018-03-16T19:32:36.873Z,-0.19
2018-03-16T19:35:18.125Z,-0.21
2018-03-16T19:37:55.868Z,-0.18
2018-03-16T19:40:29.981Z,-0.22
2018-03-16T19:43:23.685Z,-0.18
2018-03-16T19:46:02.772Z,-0.32
2018-03-16T19:51:57.088Z,-0.23
2018-03-16T19:54:39.740Z,-0.24
2018-03-16T19:57:38.963Z,-0.30
2018-03-16T20:00:19.031Z,-0.38
2018-03-16T20:02:59.173Z,-0.33
2018-03-16T20:05:38.382Z,-0.34
2018-03-16T20:08:17.442Z,-0.42
2018-03-16T20:10:57.070Z,-0.40
2018-03-16T20:13:36.828Z,-0.42
2018-03-16T20:16:16.038Z,-0.45
2018-03-16T20:21:51.272Z,-0.45
2018-03-16T20:24:32.923Z,-0.55
2018-03-16T20:27:14.357Z,-0.65
2018-03-16T20:29:54.934Z,-0.54
2018-03-16T20:32:36.526Z,-0.51
2018-03-16T20:35:19.169Z,-0.49
2018-03-16T20:38:00.897Z,-0.47
2018-03-16T20:40:41.081Z,-0.52
2018-03-16T20:43:20.727Z,-0.63
2018-03-16T20:46:01.195Z,-0.63
2018-03-16T20:48:42.557Z,-0.56
2018-03-16T20:51:22.172Z,-0.59
2018-03-16T20:54:02.306Z,-0.37
2018-03-16T20:56:41.629Z,-0.44
2018-03-16T20:59:23.248Z,-0.42
2018-03-16T21:02:02.779Z,-0.34
2018-03-16T21:04:43.640Z,-0.41
2018-03-16T21:07:22.640Z,-0.52
2018-03-16T21:10:03.168Z,-0.66
2018-03-16T21:12:46.018Z,-0.58
2018-03-16T21:15:25.181Z,-0.57
2018-03-16T21:18:06.715Z,-0.53
2018-03-16T21:20:50.704Z,-0.69
2018-03-16T21:23:42.573Z,-0.71
2018-03-16T21:26:25.796Z,-0.56
2018-03-16T21:29:06.102Z,-0.59
2018-03-16T21:31:47.245Z,-0.54
2018-03-16T21:34:28.127Z,-0.58
2018-03-16T21:37:07.492Z,-0.63
2018-03-16T21:39:48.266Z,-0.58
2018-03-16T21:42:28.747Z,-0.70
2018-03-16T21:45:11.121Z,-0.81
2018-03-16T21:47:50.148Z,-0.73
2018-03-16T21:50:43.434Z,-0.71
2018-03-16T21:53:23.477Z,-0.85
2018-03-16T21:56:02.967Z,-0.77
2018-03-16T21:58:43.436Z,-0.90
2018-03-16T22:01:23.779Z,-0.86
2018-03-16T22:04:04.109Z,-0.81
2018-03-16T22:06:47.851Z,-0.88
2018-03-16T22:09:28.165Z,-0.80
2018-03-16T22:12:07.391Z,-0.83
2018-03-16T22:14:46.345Z,-0.80
2018-03-16T22:17:25.233Z,-0.78
2018-03-16T22:20:07.276Z,-0.92
2018-03-16T22:22:47.001Z,-0.97
2018-03-16T22:25:26.461Z,-0.80
2018-03-16T22:28:06.110Z,-0.87
2018-03-16T22:30:45.135Z,-0.93
2018-03-16T22:33:26.763Z,-0.99
2018-03-16T22:36:08.799Z,-1.05
2018-03-16T22:38:48.077Z,-1.05
2018-03-16T22:41:32.572Z,-1.07
2018-03-16T22:44:13.092Z,-1.10
2018-03-16T22:46:52.037Z,-1.08
2018-03-16T22:49:31.757Z,-1.03
2018-03-16T22:52:11.804Z,-1.03
2018-03-16T22:54:52.938Z,-1.13
2018-03-16T22:57:32.123Z,-1.00
2018-03-16T23:00:12.272Z,-1.01
2018-03-16T23:02:52.352Z,-0.99
2018-03-16T23:05:31.482Z,-0.98
2018-03-16T23:08:12.717Z,-0.97
2018-03-16T23:10:53.218Z,-1.16
2018-03-16T23:13:32.059Z,-1.26
2018-03-16T23:16:11.673Z,-1.05
2018-03-16T23:18:54.098Z,-1.03
2018-03-16T23:21:33.762Z,-1.09
2018-03-16T23:24:12.594Z,-1.12
2018-03-16T23:26:53.731Z,-1.10
2018-03-16T23:29:33.448Z,-1.24
2018-03-16T23:32:14.210Z,-1.35
2018-03-16T23:34:53.554Z,-1.32
2018-03-16T23:37:35.039Z,-1.30
2018-03-16T23:40:16.631Z,-1.30
2018-03-16T23:42:55.505Z,-1.30
2018-03-16T23:45:34.544Z,-1.45
2018-03-16T23:48:14.030Z,-1.41
2018-03-16T23:50:53.054Z,-1.33
2018-03-16T23:53:35.288Z,-1.35
2018-03-16T23:56:15.091Z,-1.28
2018-03-16T23:58:56.496Z,-1.47
